createdAt,value
2022-09-02T00:02:02.481Z,66.00
2022-09-02T00:12:09.135Z,66.60
2022-09-02T00:22:12.880Z,66.70
2022-09-02T00:32:18.079Z,67.00
2022-09-02T00:42:23.123Z,67.80
2022-09-02T00:52:33.450Z,68.30
2022-09-02T01:02:39.805Z,68.90
2022-09-02T01:12:45.478Z,69.80
2022-09-02T01:22:52.104Z,70.90
2022-09-02T01:32:57.879Z,73.00
2022-09-02T01:43:09.533Z,73.00
2022-09-02T01:53:13.662Z,74.20
2022-09-02T02:03:20.002Z,74.90
2022-09-02T02:13:24.019Z,75.30
2022-09-02T02:23:29.232Z,76.60
2022-09-02T02:33:38.014Z,78.50
2022-09-02T02:43:43.399Z,79.60
2022-09-02T02:53:47.477Z,78.70
2022-09-02T03:03:54.148Z,80.40
2022-09-02T03:13:59.296Z,79.60
2022-09-02T03:24:04.711Z,78.90
2022-09-02T03:34:08.558Z,79.50
2022-09-02T03:44:13.646Z,80.00
2022-09-02T03:54:17.418Z,80.40
2022-09-02T04:04:25.052Z,79.70
2022-09-02T04:14:28.958Z,79.30
2022-09-02T04:24:34.030Z,79.30
2022-09-02T04:34:37.891Z,78.40
2022-09-02T04:44:43.005Z,79.10
2022-09-02T04:54:46.942Z,81.50
2022-09-02T05:04:52.507Z,81.80
2022-09-02T05:15:00.155Z,82.70
2022-09-02T05:25:08.706Z,80.10
2022-09-02T05:35:12.518Z,78.90
2022-09-02T05:45:18.045Z,77.60
2022-09-02T05:55:22.007Z,76.90
2022-09-02T06:05:27.345Z,76.60
2022-09-02T06:15:31.319Z,74.90
2022-09-02T06:25:39.388Z,74.20
2022-09-02T06:35:46.541Z,73.40
2022-09-02T06:45:51.716Z,72.30
2022-09-02T06:55:58.471Z,72.20
2022-09-02T07:06:10.071Z,70.30
2022-09-02T07:16:22.708Z,70.00
2022-09-02T07:26:32.449Z,70.10
2022-09-02T07:36:36.561Z,69.10
2022-09-02T07:46:42.362Z,68.70
2022-09-02T07:56:50.598Z,67.30
2022-09-02T08:06:56.352Z,68.00
2022-09-02T08:17:00.444Z,66.70
2022-09-02T08:27:06.443Z,66.10
2022-09-02T08:37:10.171Z,64.90
2022-09-02T08:47:23.188Z,63.40
2022-09-02T08:57:28.110Z,61.20
2022-09-02T09:07:39.110Z,61.20
2022-09-02T09:17:50.088Z,59.70
2022-09-02T09:27:58.124Z,59.10
2022-09-02T09:38:14.240Z,58.50
2022-09-02T09:48:31.448Z,57.60
2022-09-02T09:58:43.786Z,57.40
2022-09-02T10:08:55.738Z,54.70
2022-09-02T10:19:09.408Z,52.50
2022-09-02T10:29:47.069Z,50.70
2022-09-02T10:40:09.599Z,48.30
2022-09-02T10:50:23.923Z,46.10
2022-09-02T11:00:29.493Z,45.30
2022-09-02T11:10:39.023Z,46.30
2022-09-02T11:20:50.769Z,45.80
2022-09-02T11:31:06.650Z,45.40
2022-09-02T11:41:37.171Z,44.30
2022-09-02T11:52:07.854Z,43.70
2022-09-02T12:02:12.872Z,43.40
2022-09-02T12:13:08.379Z,44.10
2022-09-02T12:24:05.110Z,43.40
2022-09-02T12:35:03.138Z,43.10
2022-09-02T12:45:13.109Z,42.70
2022-09-02T12:55:28.435Z,41.70
2022-09-02T13:05:51.741Z,40.90
2022-09-02T13:16:18.379Z,41.10
2022-09-02T13:26:56.125Z,41.10
2022-09-02T13:37:01.300Z,41.20
2022-09-02T13:47:16.219Z,40.30
2022-09-02T13:57:26.691Z,40.30
2022-09-02T14:07:39.538Z,39.30
2022-09-02T14:17:44.705Z,40.00
2022-09-02T14:27:51.206Z,38.90
2022-09-02T14:37:59.474Z,37.90
2022-09-02T14:48:12.390Z,37.80
2022-09-02T14:58:18.471Z,37.50
2022-09-02T15:08:23.187Z,37.50
2022-09-02T15:18:28.558Z,36.60
2022-09-02T15:28:32.285Z,36.90
2022-09-02T15:38:40.953Z,36.80
2022-09-02T15:48:44.672Z,37.00
2022-09-02T15:58:57.950Z,37.00
2022-09-02T16:09:01.705Z,36.70
2022-09-02T16:19:08.445Z,36.50
2022-09-02T16:29:17.621Z,35.90
2022-09-02T16:39:22.895Z,35.50
2022-09-02T16:49:26.647Z,35.70
2022-09-02T16:59:31.789Z,36.30
2022-09-02T17:09:37.820Z,34.60
2022-09-02T17:19:44.250Z,34.30
2022-09-02T17:29:51.382Z,34.00
2022-09-02T17:39:56.491Z,34.10
2022-09-02T17:50:00.414Z,34.60
2022-09-02T18:00:11.511Z,36.70
2022-09-02T18:10:22.486Z,38.00
2022-09-02T18:20:40.394Z,39.70
2022-09-02T18:30:56.228Z,40.20
2022-09-02T18:41:20.027Z,41.00
2022-09-02T18:51:35.499Z,41.70
2022-09-02T19:01:46.724Z,42.10
2022-09-02T19:11:51.939Z,42.70
2022-09-02T19:22:01.840Z,43.40
2022-09-02T19:32:06.751Z,43.60
2022-09-02T19:42:11.979Z,44.20
2022-09-02T19:52:15.700Z,44.40
2022-09-02T20:02:20.850Z,45.20
2022-09-02T20:12:24.689Z,45.50
2022-09-02T20:22:30.539Z,46.40
2022-09-02T20:32:53.791Z,47.50
2022-09-02T20:43:27.312Z,47.80
2022-09-02T20:54:01.056Z,48.70
2022-09-02T21:04:28.941Z,49.30
2022-09-02T21:14:51.479Z,50.10
2022-09-02T21:25:02.985Z,50.70
2022-09-02T21:35:12.480Z,51.40
2022-09-02T21:45:24.489Z,52.20
2022-09-02T21:55:44.547Z,52.50
2022-09-02T22:05:59.957Z,52.90
2022-09-02T22:16:17.918Z,53.60
2022-09-02T22:26:35.502Z,53.60
2022-09-02T22:36:56.308Z,53.80
2022-09-02T22:47:27.937Z,54.00
2022-09-02T22:57:42.343Z,54.20
2022-09-02T23:07:47.526Z,54.40
2022-09-02T23:18:03.378Z,55.00
2022-09-02T23:28:16.814Z,55.20
2022-09-02T23:38:44.934Z,55.90
2022-09-02T23:48:58.133Z,58.00
2022-09-02T23:59:23.646Z,57.50
